createdAt,value
2023-05-08T00:00:10.979Z,102744.09
2023-05-08T00:02:38.007Z,102717.13
2023-05-08T00:05:05.285Z,102742.69
2023-05-08T00:07:32.155Z,102738.50
2023-05-08T00:09:58.921Z,102739.44
2023-05-08T00:12:25.648Z,102755.63
2023-05-08T00:14:52.490Z,102747.41
2023-05-08T00:17:19.262Z,102752.41
2023-05-08T00:19:46.062Z,102750.66
2023-05-08T00:22:12.825Z,102753.13
2023-05-08T00:24:39.673Z,102752.41
2023-05-08T00:27:08.216Z,102750.88
2023-05-08T00:29:34.962Z,102747.66
2023-05-08T00:32:01.756Z,102748.47
2023-05-08T00:34:28.548Z,102754.41
2023-05-08T00:36:56.564Z,102761.41
2023-05-08T00:39:23.372Z,102747.75
2023-05-08T00:41:50.115Z,102746.22
2023-05-08T00:44:16.992Z,102756.50
2023-05-08T00:46:43.853Z,102760.78
2023-05-08T00:49:13.171Z,102758.16
2023-05-08T00:51:44.150Z,102764.34
2023-05-08T00:54:11.112Z,102751.63
2023-05-08T00:56:37.990Z,102750.75
2023-05-08T00:59:07.741Z,102762.63
2023-05-08T01:01:36.364Z,102750.81
2023-05-08T01:04:04.273Z,102727.25
2023-05-08T01:06:32.134Z,102763.03
2023-05-08T01:08:58.978Z,102762.50
2023-05-08T01:11:31.350Z,102769.47
2023-05-08T01:14:05.129Z,102768.81
2023-05-08T01:16:58.733Z,102776.41
2023-05-08T01:19:47.277Z,102787.78
2023-05-08T01:22:38.755Z,102784.53
2023-05-08T01:25:29.716Z,102788.06
2023-05-08T01:28:32.153Z,102766.06
2023-05-08T01:31:37.966Z,102788.13
2023-05-08T01:34:15.149Z,102786.47
2023-05-08T01:36:45.816Z,102785.72
2023-05-08T01:39:31.356Z,102795.06
2023-05-08T01:42:01.388Z,102795.16
2023-05-08T01:44:29.892Z,102789.25
2023-05-08T01:46:56.681Z,102795.22
2023-05-08T01:50:09.055Z,102790.97
2023-05-08T01:52:47.007Z,102780.81
2023-05-08T01:55:23.137Z,102784.44
2023-05-08T01:57:51.277Z,102789.53
2023-05-08T02:00:19.405Z,102780.31
2023-05-08T02:02:46.870Z,102791.38
2023-05-08T02:05:13.808Z,102794.22
2023-05-08T02:07:40.595Z,102783.19
2023-05-08T02:10:08.078Z,102795.25
2023-05-08T02:12:34.900Z,102796.13
2023-05-08T02:15:01.933Z,102809.06
2023-05-08T02:17:28.947Z,102787.78
2023-05-08T02:19:56.933Z,102795.44
2023-05-08T02:22:23.882Z,102795.59
2023-05-08T02:24:53.221Z,102798.09
2023-05-08T02:27:23.901Z,102797.41
2023-05-08T02:29:51.162Z,102798.19
2023-05-08T02:32:19.239Z,102783.81
2023-05-08T02:34:55.189Z,102813.63
2023-05-08T02:37:29.050Z,102805.16
2023-05-08T02:39:55.980Z,102803.56
2023-05-08T02:42:22.685Z,102797.56
2023-05-08T02:44:49.438Z,102802.72
2023-05-08T02:47:33.613Z,102788.28
2023-05-08T02:50:06.825Z,102801.97
2023-05-08T02:52:38.143Z,102806.31
2023-05-08T02:55:06.057Z,102811.28
2023-05-08T02:58:10.537Z,102820.56
2023-05-08T03:00:47.851Z,102802.72
2023-05-08T03:03:25.795Z,102812.03
2023-05-08T03:05:55.328Z,102798.53
2023-05-08T03:08:32.971Z,102815.41
2023-05-08T03:11:01.796Z,102815.38
2023-05-08T03:13:29.651Z,102818.81
2023-05-08T03:15:59.111Z,102816.84
2023-05-08T03:18:36.365Z,102823.31
2023-05-08T03:21:03.236Z,102815.31
2023-05-08T03:23:30.111Z,102821.50
2023-05-08T03:25:58.325Z,102820.78
2023-05-08T03:28:25.070Z,102816.53
2023-05-08T03:30:51.927Z,102815.50
2023-05-08T03:33:18.738Z,102825.41
2023-05-08T03:35:45.651Z,102814.19
2023-05-08T03:38:12.387Z,102818.03
2023-05-08T03:40:39.237Z,102808.28
2023-05-08T03:43:07.054Z,102815.63
2023-05-08T03:45:38.446Z,102794.56
2023-05-08T03:48:06.261Z,102801.66
2023-05-08T03:50:34.712Z,102800.94
2023-05-08T03:53:01.605Z,102818.16
2023-05-08T03:55:28.326Z,102807.22
2023-05-08T03:58:01.331Z,102802.53
2023-05-08T04:00:27.992Z,102816.00
2023-05-08T04:03:05.493Z,102794.31
2023-05-08T04:05:37.844Z,102819.63
2023-05-08T04:08:21.855Z,102820.66
2023-05-08T04:10:54.835Z,102800.78
2023-05-08T04:13:25.935Z,102801.19
2023-05-08T04:15:55.578Z,102812.47
2023-05-08T04:18:29.549Z,102803.56
2023-05-08T04:20:56.754Z,102785.09
2023-05-08T04:23:23.563Z,102818.94
2023-05-08T04:25:51.686Z,102810.09
2023-05-08T04:28:18.721Z,102816.63
2023-05-08T04:30:45.695Z,102819.03
2023-05-08T04:33:12.852Z,102818.28
2023-05-08T04:35:39.750Z,102828.91
2023-05-08T04:38:06.683Z,102812.25
2023-05-08T04:40:33.434Z,102829.94
2023-05-08T04:43:00.242Z,102797.09
2023-05-08T04:45:27.023Z,102816.09
2023-05-08T04:47:53.852Z,102830.66
2023-05-08T04:50:20.982Z,102832.31
2023-05-08T04:52:47.744Z,102830.91
2023-05-08T04:55:14.723Z,102823.22
2023-05-08T04:57:41.602Z,102821.97
2023-05-08T05:00:09.114Z,102841.16
2023-05-08T05:02:36.053Z,102833.81
2023-05-08T05:05:02.875Z,102848.88
2023-05-08T05:07:29.725Z,102839.28
2023-05-08T05:09:56.574Z,102830.63
2023-05-08T05:12:23.424Z,102839.22
2023-05-08T05:14:50.262Z,102844.84
2023-05-08T05:17:17.039Z,102847.44
2023-05-08T05:19:43.861Z,102832.88
2023-05-08T05:22:10.662Z,102848.72
2023-05-08T05:24:37.466Z,102836.88
2023-05-08T05:27:04.707Z,102831.81
2023-05-08T05:29:31.555Z,102842.41
2023-05-08T05:31:58.457Z,102845.28
2023-05-08T05:34:25.363Z,102844.91
2023-05-08T05:36:52.156Z,102844.81
2023-05-08T05:39:18.945Z,102842.69
2023-05-08T05:41:45.753Z,102841.53
2023-05-08T05:44:12.882Z,102847.13
2023-05-08T05:46:42.124Z,102848.78
2023-05-08T05:49:11.917Z,102852.75
2023-05-08T05:51:38.682Z,102856.47
2023-05-08T05:54:05.540Z,102843.81
2023-05-08T05:56:32.429Z,102849.19
2023-05-08T05:58:59.494Z,102853.72
2023-05-08T06:01:29.047Z,102862.31
2023-05-08T06:03:56.089Z,102854.94
2023-05-08T06:06:23.092Z,102846.19
2023-05-08T06:08:49.830Z,102854.09
2023-05-08T06:11:16.601Z,102854.47
2023-05-08T06:13:44.241Z,102859.72
2023-05-08T06:16:11.050Z,102847.78
2023-05-08T06:18:37.819Z,102849.66
2023-05-08T06:21:04.814Z,102841.16
2023-05-08T06:23:31.837Z,102845.28
2023-05-08T06:25:58.778Z,102847.03
2023-05-08T06:28:26.259Z,102847.59
2023-05-08T06:30:53.251Z,102854.03
2023-05-08T06:33:20.137Z,102849.34
2023-05-08T06:35:47.859Z,102848.91
2023-05-08T06:38:15.121Z,102851.78
2023-05-08T06:40:45.705Z,102860.78
2023-05-08T06:43:12.885Z,102856.28
2023-05-08T06:45:40.337Z,102845.59
2023-05-08T06:48:07.218Z,102860.19
2023-05-08T06:50:34.149Z,102833.50
2023-05-08T06:53:01.073Z,102848.59
2023-05-08T06:55:27.957Z,102853.34
2023-05-08T06:57:54.820Z,102854.63
2023-05-08T07:00:22.035Z,102853.97
2023-05-08T07:02:48.875Z,102852.31
2023-05-08T07:05:15.988Z,102852.47
2023-05-08T07:07:43.198Z,102856.59
2023-05-08T07:10:10.355Z,102853.94
2023-05-08T07:12:37.286Z,102858.31
2023-05-08T07:15:13.906Z,102857.13
2023-05-08T07:17:51.278Z,102844.28
2023-05-08T07:20:18.125Z,102846.75
2023-05-08T07:22:44.935Z,102856.31
2023-05-08T07:25:12.822Z,102857.91
2023-05-08T07:27:39.852Z,102858.06
2023-05-08T07:30:07.360Z,102849.28
2023-05-08T07:32:34.231Z,102852.63
2023-05-08T07:35:02.825Z,102848.56
2023-05-08T07:37:29.661Z,102843.25
2023-05-08T07:39:56.549Z,102851.44
2023-05-08T07:42:23.457Z,102844.66
2023-05-08T07:44:54.868Z,102848.63
2023-05-08T07:47:22.205Z,102843.69
2023-05-08T07:49:49.029Z,102847.41
2023-05-08T07:52:15.848Z,102842.88
2023-05-08T07:54:42.717Z,102843.88
2023-05-08T07:57:09.537Z,102842.59
2023-05-08T07:59:36.291Z,102842.84
2023-05-08T08:02:03.073Z,102838.47
2023-05-08T08:04:30.049Z,102845.84
2023-05-08T08:06:57.435Z,102853.34
2023-05-08T08:09:24.259Z,102844.81
2023-05-08T08:11:51.113Z,102856.44
2023-05-08T08:14:18.007Z,102855.28
2023-05-08T08:16:44.779Z,102845.28
2023-05-08T08:19:11.556Z,102840.69
2023-05-08T08:21:47.216Z,102860.69
2023-05-08T08:24:13.951Z,102861.72
2023-05-08T08:26:40.762Z,102856.78
2023-05-08T08:29:07.513Z,102848.03
2023-05-08T08:31:34.324Z,102847.50
2023-05-08T08:34:01.173Z,102833.69
2023-05-08T08:36:28.190Z,102850.44
2023-05-08T08:38:54.954Z,102836.88
2023-05-08T08:41:22.238Z,102833.09
2023-05-08T08:43:48.996Z,102851.00
2023-05-08T08:46:15.895Z,102857.03
2023-05-08T08:48:47.296Z,102855.34
2023-05-08T08:51:33.242Z,102854.53
2023-05-08T08:54:12.660Z,102856.47
2023-05-08T08:56:40.794Z,102852.19
2023-05-08T08:59:07.658Z,102850.41
2023-05-08T09:01:38.796Z,102846.47
2023-05-08T09:04:05.797Z,102836.66
2023-05-08T09:06:36.663Z,102848.25
2023-05-08T09:09:03.572Z,102852.56
2023-05-08T09:11:30.397Z,102840.38
2023-05-08T09:13:57.494Z,102836.91
2023-05-08T09:16:24.485Z,102854.25
2023-05-08T09:18:51.446Z,102848.75
2023-05-08T09:21:18.217Z,102842.81
2023-05-08T09:24:03.641Z,102848.94
2023-05-08T09:26:32.667Z,102841.66
2023-05-08T09:29:24.087Z,102845.03
2023-05-08T09:31:52.430Z,102853.94
2023-05-08T09:34:29.416Z,102839.38
2023-05-08T09:36:56.779Z,102837.81
2023-05-08T09:39:25.013Z,102835.84
2023-05-08T09:42:04.602Z,102830.78
2023-05-08T09:44:50.793Z,102827.75
2023-05-08T09:47:19.900Z,102812.31
2023-05-08T09:50:02.663Z,102825.63
2023-05-08T09:52:30.149Z,102820.00
2023-05-08T09:55:10.412Z,102812.19
2023-05-08T09:57:39.461Z,102821.88
2023-05-08T10:00:10.539Z,102821.00
2023-05-08T10:02:38.044Z,102805.56
2023-05-08T10:05:06.545Z,102803.97
2023-05-08T10:07:35.835Z,102798.81
2023-05-08T10:10:04.153Z,102801.25
2023-05-08T10:12:30.976Z,102783.69
2023-05-08T10:14:57.824Z,102794.16
2023-05-08T10:17:38.996Z,102802.16
2023-05-08T10:20:07.386Z,102791.09
2023-05-08T10:22:36.820Z,102777.16
2023-05-08T10:25:05.174Z,102806.59
2023-05-08T10:27:47.989Z,102810.56
2023-05-08T10:30:15.134Z,102791.13
2023-05-08T10:32:45.553Z,102804.03
2023-05-08T10:35:12.521Z,102796.00
2023-05-08T10:37:39.543Z,102795.47
2023-05-08T10:40:07.008Z,102775.25
2023-05-08T10:42:34.282Z,102777.78
2023-05-08T10:45:01.124Z,102778.59
2023-05-08T10:47:34.275Z,102790.28
2023-05-08T10:50:06.292Z,102774.13
2023-05-08T10:52:57.449Z,102779.63
2023-05-08T10:55:36.880Z,102767.22
2023-05-08T10:58:09.807Z,102771.31
2023-05-08T11:01:01.361Z,102778.19
2023-05-08T11:03:32.484Z,102782.84
2023-05-08T11:06:00.423Z,102765.97
2023-05-08T11:08:28.140Z,102756.53
2023-05-08T11:11:02.472Z,102763.63
2023-05-08T11:13:33.462Z,102749.59
2023-05-08T11:16:00.239Z,102749.72
2023-05-08T11:18:32.498Z,102744.75
2023-05-08T11:21:16.013Z,102749.56
2023-05-08T11:23:42.890Z,102751.41
2023-05-08T11:26:13.739Z,102733.66
2023-05-08T11:29:01.866Z,102723.03
2023-05-08T11:31:50.801Z,102749.22
2023-05-08T11:34:53.052Z,102739.16
2023-05-08T11:37:29.396Z,102739.97
2023-05-08T11:39:56.168Z,102737.94
2023-05-08T11:42:26.887Z,102752.25
2023-05-08T11:45:09.878Z,102736.06
2023-05-08T11:47:43.841Z,102727.41
2023-05-08T11:50:11.697Z,102723.72
2023-05-08T11:52:40.162Z,102716.03
2023-05-08T11:55:08.881Z,102738.91
2023-05-08T11:57:35.833Z,102718.69
2023-05-08T12:00:06.624Z,102747.03
2023-05-08T12:02:43.635Z,102715.75
2023-05-08T12:05:11.236Z,102725.28
2023-05-08T12:07:47.503Z,102739.66
2023-05-08T12:10:15.689Z,102701.09
2023-05-08T12:12:43.632Z,102728.19
2023-05-08T12:15:12.337Z,102721.66
2023-05-08T12:17:39.180Z,102721.91
2023-05-08T12:20:18.917Z,102739.34
2023-05-08T12:22:52.894Z,102734.53
2023-05-08T12:25:20.074Z,102718.72
2023-05-08T12:27:47.148Z,102718.16
2023-05-08T12:30:15.057Z,102710.25
2023-05-08T12:32:42.499Z,102741.91
2023-05-08T12:35:10.356Z,102715.41
2023-05-08T12:37:37.223Z,102704.34
2023-05-08T12:40:04.857Z,102707.44
2023-05-08T12:42:44.654Z,102711.00
2023-05-08T12:45:21.242Z,102720.00
2023-05-08T12:47:52.157Z,102731.06
2023-05-08T12:50:25.906Z,102694.44
2023-05-08T12:52:52.831Z,102693.13
2023-05-08T12:55:26.499Z,102716.69
2023-05-08T12:58:03.940Z,102703.59
2023-05-08T13:00:41.530Z,102705.63
2023-05-08T13:03:21.470Z,102704.69
2023-05-08T13:05:48.380Z,102713.50
2023-05-08T13:08:15.140Z,102717.44
2023-05-08T13:10:54.840Z,102712.19
2023-05-08T13:13:26.180Z,102699.50
2023-05-08T13:15:54.261Z,102685.38
2023-05-08T13:18:21.913Z,102687.41
2023-05-08T13:20:48.936Z,102676.75
2023-05-08T13:23:15.844Z,102697.75
2023-05-08T13:25:42.600Z,102709.94
2023-05-08T13:28:10.169Z,102690.63
2023-05-08T13:30:37.197Z,102703.38
2023-05-08T13:33:04.636Z,102693.13
2023-05-08T13:35:31.628Z,102688.72
2023-05-08T13:37:58.543Z,102679.38
2023-05-08T13:40:25.955Z,102700.53
2023-05-08T13:42:52.800Z,102670.88
2023-05-08T13:45:19.558Z,102672.22
2023-05-08T13:47:46.984Z,102666.63
2023-05-08T13:50:15.000Z,102683.91
2023-05-08T13:52:41.936Z,102658.72
2023-05-08T13:55:10.303Z,102683.41
2023-05-08T13:57:37.330Z,102665.53
2023-05-08T14:00:05.260Z,102682.91
2023-05-08T14:02:32.192Z,102670.28
2023-05-08T14:04:59.020Z,102674.50
2023-05-08T14:07:26.312Z,102673.53
2023-05-08T14:09:53.422Z,102673.81
2023-05-08T14:12:20.533Z,102679.38
2023-05-08T14:14:47.336Z,102654.91
2023-05-08T14:17:14.126Z,102642.25
2023-05-08T14:19:40.997Z,102661.13
2023-05-08T14:22:07.756Z,102651.38
2023-05-08T14:24:34.480Z,102648.06
2023-05-08T14:27:05.813Z,102652.53
2023-05-08T14:29:33.879Z,102664.41
2023-05-08T14:32:00.924Z,102654.63
2023-05-08T14:34:27.969Z,102650.66
2023-05-08T14:36:56.036Z,102670.97
2023-05-08T14:39:22.801Z,102665.03
2023-05-08T14:42:10.452Z,102654.84
2023-05-08T14:44:36.322Z,102670.28
2023-05-08T14:47:03.178Z,102645.75
2023-05-08T14:49:37.399Z,102661.00
2023-05-08T14:52:05.810Z,102669.03
2023-05-08T14:54:32.783Z,102680.28
2023-05-08T14:56:59.849Z,102665.44
2023-05-08T14:59:26.664Z,102656.34
2023-05-08T15:01:53.568Z,102673.78
2023-05-08T15:04:20.713Z,102661.13
2023-05-08T15:06:47.865Z,102643.47
2023-05-08T15:09:16.875Z,102670.41
2023-05-08T15:11:44.337Z,102672.84
2023-05-08T15:14:11.307Z,102653.25
2023-05-08T15:16:38.262Z,102653.22
2023-05-08T15:19:05.104Z,102685.94
2023-05-08T15:21:31.866Z,102666.91
2023-05-08T15:23:58.680Z,102650.72
2023-05-08T15:26:25.713Z,102653.22
2023-05-08T15:28:52.519Z,102678.38
2023-05-08T15:31:19.327Z,102645.91
2023-05-08T15:33:47.783Z,102656.91
2023-05-08T15:36:14.663Z,102673.97
2023-05-08T15:38:41.699Z,102665.72
2023-05-08T15:41:12.073Z,102660.91
2023-05-08T15:43:40.630Z,102678.75
2023-05-08T15:46:07.639Z,102660.84
2023-05-08T15:48:34.621Z,102656.38
2023-05-08T15:51:01.546Z,102632.19
2023-05-08T15:53:28.473Z,102659.34
2023-05-08T15:55:57.103Z,102662.50
2023-05-08T15:58:24.342Z,102651.03
2023-05-08T16:00:51.372Z,102644.53
2023-05-08T16:03:18.307Z,102664.44
2023-05-08T16:05:45.237Z,102650.72
2023-05-08T16:08:13.744Z,102647.16
2023-05-08T16:10:41.112Z,102661.06
2023-05-08T16:13:08.311Z,102648.19
2023-05-08T16:15:35.217Z,102651.66
2023-05-08T16:18:02.992Z,102648.25
2023-05-08T16:20:30.042Z,102651.38
2023-05-08T16:22:57.119Z,102651.06
2023-05-08T16:25:23.962Z,102656.53
2023-05-08T16:27:50.846Z,102659.06
2023-05-08T16:30:18.207Z,102648.59
2023-05-08T16:32:46.140Z,102657.91
2023-05-08T16:35:13.597Z,102655.03
2023-05-08T16:37:40.699Z,102654.88
2023-05-08T16:40:08.542Z,102668.50
2023-05-08T16:42:35.461Z,102671.38
2023-05-08T16:45:03.267Z,102662.44
2023-05-08T16:47:30.039Z,102665.34
2023-05-08T16:49:56.851Z,102665.22
2023-05-08T16:52:23.531Z,102659.06
2023-05-08T16:54:50.296Z,102660.81
2023-05-08T16:57:17.091Z,102646.56
2023-05-08T16:59:43.934Z,102663.25
2023-05-08T17:02:11.999Z,102646.91
2023-05-08T17:04:38.856Z,102675.88
2023-05-08T17:07:05.861Z,102657.94
2023-05-08T17:09:34.845Z,102654.22
2023-05-08T17:12:02.326Z,102665.44
2023-05-08T17:14:29.155Z,102662.97
2023-05-08T17:16:55.920Z,102656.78
2023-05-08T17:19:22.667Z,102666.06
2023-05-08T17:21:49.514Z,102663.09
2023-05-08T17:24:16.236Z,102652.00
2023-05-08T17:26:43.000Z,102676.22
2023-05-08T17:29:09.760Z,102668.00
2023-05-08T17:31:36.556Z,102673.31
2023-05-08T17:34:03.358Z,102670.94
2023-05-08T17:36:30.130Z,102668.81
2023-05-08T17:38:56.931Z,102667.25
2023-05-08T17:41:23.776Z,102680.06
2023-05-08T17:43:50.531Z,102671.69
2023-05-08T17:46:17.447Z,102649.50
2023-05-08T17:48:44.258Z,102682.44
2023-05-08T17:51:14.160Z,102675.47
2023-05-08T17:53:40.900Z,102670.66
2023-05-08T17:56:08.095Z,102678.00
2023-05-08T17:58:34.866Z,102684.81
2023-05-08T18:01:01.709Z,102688.22
2023-05-08T18:03:28.487Z,102691.47
2023-05-08T18:05:55.356Z,102698.53
2023-05-08T18:08:22.122Z,102693.84
2023-05-08T18:10:48.819Z,102689.78
2023-05-08T18:13:15.703Z,102684.66
2023-05-08T18:15:42.713Z,102707.78
2023-05-08T18:18:09.782Z,102687.75
2023-05-08T18:20:36.598Z,102687.88
2023-05-08T18:23:03.489Z,102705.91
2023-05-08T18:25:30.344Z,102701.91
2023-05-08T18:27:58.914Z,102699.28
2023-05-08T18:30:25.685Z,102701.97
2023-05-08T18:32:53.343Z,102699.47
2023-05-08T18:35:21.704Z,102722.16
2023-05-08T18:37:48.498Z,102720.63
2023-05-08T18:40:15.505Z,102724.69
2023-05-08T18:42:42.454Z,102705.25
2023-05-08T18:45:09.996Z,102724.75
2023-05-08T18:47:36.925Z,102723.72
2023-05-08T18:50:03.849Z,102721.13
2023-05-08T18:52:30.627Z,102728.06
2023-05-08T18:54:57.516Z,102719.81
2023-05-08T18:57:24.293Z,102716.34
2023-05-08T18:59:51.165Z,102716.38
2023-05-08T19:02:17.900Z,102723.78
2023-05-08T19:04:44.806Z,102727.78
2023-05-08T19:07:11.605Z,102723.81
2023-05-08T19:09:38.361Z,102743.81
2023-05-08T19:12:05.178Z,102741.09
2023-05-08T19:14:31.904Z,102753.69
2023-05-08T19:16:58.780Z,102734.66
2023-05-08T19:19:25.661Z,102745.03
2023-05-08T19:21:52.424Z,102753.50
2023-05-08T19:24:20.951Z,102733.56
2023-05-08T19:26:47.795Z,102737.56
2023-05-08T19:29:14.579Z,102747.69
2023-05-08T19:31:41.503Z,102758.63
2023-05-08T19:34:08.370Z,102741.16
2023-05-08T19:36:37.629Z,102736.25
2023-05-08T19:39:04.675Z,102751.00
2023-05-08T19:41:31.412Z,102742.91
2023-05-08T19:43:58.249Z,102749.38
2023-05-08T19:46:25.020Z,102741.69
2023-05-08T19:48:51.870Z,102748.69
2023-05-08T19:51:18.630Z,102743.25
2023-05-08T19:53:45.514Z,102749.25
2023-05-08T19:56:12.327Z,102744.66
2023-05-08T19:58:39.181Z,102731.16
2023-05-08T20:01:05.974Z,102744.16
2023-05-08T20:03:32.924Z,102732.34
2023-05-08T20:05:59.878Z,102741.16
2023-05-08T20:08:26.711Z,102737.03
2023-05-08T20:10:53.581Z,102736.69
2023-05-08T20:13:20.406Z,102726.25
2023-05-08T20:15:47.468Z,102732.66
2023-05-08T20:18:14.290Z,102738.84
2023-05-08T20:20:41.152Z,102738.25
2023-05-08T20:23:07.936Z,102737.63
2023-05-08T20:25:34.730Z,102739.47
2023-05-08T20:28:01.571Z,102725.63
2023-05-08T20:30:28.341Z,102737.13
2023-05-08T20:32:55.409Z,102740.22
2023-05-08T20:35:22.314Z,102727.63
2023-05-08T20:37:49.470Z,102749.06
2023-05-08T20:40:16.552Z,102736.59
2023-05-08T20:42:43.594Z,102743.56
2023-05-08T20:45:11.122Z,102748.84
2023-05-08T20:47:37.986Z,102737.19
2023-05-08T20:50:05.295Z,102745.06
2023-05-08T20:52:32.883Z,102730.72
2023-05-08T20:55:00.641Z,102742.53
2023-05-08T20:57:27.435Z,102730.06
2023-05-08T20:59:54.211Z,102727.56
2023-05-08T21:02:20.988Z,102737.06
2023-05-08T21:04:47.759Z,102745.84
2023-05-08T21:07:14.560Z,102745.00
2023-05-08T21:09:41.480Z,102734.09
2023-05-08T21:12:08.198Z,102737.53
2023-05-08T21:14:35.348Z,102732.03
2023-05-08T21:17:02.185Z,102737.09
2023-05-08T21:19:30.754Z,102724.53
2023-05-08T21:21:57.537Z,102729.72
2023-05-08T21:24:25.726Z,102729.06
2023-05-08T21:26:53.156Z,102719.38
2023-05-08T21:29:20.251Z,102726.81
2023-05-08T21:31:47.083Z,102732.31
2023-05-08T21:34:14.916Z,102738.31
2023-05-08T21:36:41.928Z,102728.56
2023-05-08T21:39:09.281Z,102735.38
2023-05-08T21:41:36.039Z,102738.84
2023-05-08T21:44:02.815Z,102704.97
2023-05-08T21:46:29.667Z,102716.94
2023-05-08T21:48:56.556Z,102724.69
2023-05-08T21:51:23.336Z,102723.78
2023-05-08T21:53:50.145Z,102715.44
2023-05-08T21:56:16.951Z,102731.13
2023-05-08T21:58:43.753Z,102713.13
2023-05-08T22:01:10.535Z,102719.88
2023-05-08T22:03:37.362Z,102721.78
2023-05-08T22:06:04.284Z,102717.75
2023-05-08T22:08:31.172Z,102716.97
2023-05-08T22:10:57.942Z,102706.97
2023-05-08T22:13:24.780Z,102707.72
2023-05-08T22:15:51.764Z,102711.25
2023-05-08T22:18:18.598Z,102715.66
2023-05-08T22:20:45.358Z,102698.72
2023-05-08T22:23:12.063Z,102710.75
2023-05-08T22:25:38.857Z,102697.31
2023-05-08T22:28:05.638Z,102707.72
2023-05-08T22:30:32.389Z,102699.38
2023-05-08T22:32:59.602Z,102701.09
2023-05-08T22:35:27.549Z,102702.81
2023-05-08T22:37:54.496Z,102686.53
2023-05-08T22:40:21.660Z,102693.59
2023-05-08T22:42:48.558Z,102688.44
2023-05-08T22:45:15.550Z,102702.84
2023-05-08T22:47:42.660Z,102692.00
2023-05-08T22:50:09.553Z,102706.72
2023-05-08T22:52:36.757Z,102687.13
2023-05-08T22:55:03.792Z,102701.03
2023-05-08T22:57:30.555Z,102691.69
2023-05-08T22:59:57.336Z,102689.19
2023-05-08T23:02:24.312Z,102692.72
2023-05-08T23:04:51.141Z,102682.47
2023-05-08T23:07:18.074Z,102698.69
2023-05-08T23:09:44.853Z,102668.38
2023-05-08T23:12:11.619Z,102690.28
2023-05-08T23:14:38.426Z,102701.69
2023-05-08T23:17:05.282Z,102711.28
2023-05-08T23:19:32.069Z,102708.91
2023-05-08T23:21:58.788Z,102701.97
2023-05-08T23:24:26.111Z,102684.03
2023-05-08T23:26:53.303Z,102614.63
2023-05-08T23:29:20.124Z,102612.16
2023-05-08T23:31:47.010Z,102617.25
2023-05-08T23:34:13.831Z,102586.81
2023-05-08T23:36:40.643Z,102611.28
2023-05-08T23:39:07.675Z,102607.84
2023-05-08T23:41:34.430Z,102587.63
2023-05-08T23:44:01.258Z,102597.72
2023-05-08T23:46:28.123Z,102601.38
2023-05-08T23:48:54.859Z,102595.66
2023-05-08T23:51:22.064Z,102570.38
2023-05-08T23:53:50.119Z,102598.19
2023-05-08T23:56:16.910Z,102603.50
2023-05-08T23:58:44.037Z,102597.19
